weather.gov     
National Weather Service

Terminal Aerodrome Forecast
NWS Homepage
This page is being discontinued on March 12, 2014.
The same data is available at this site. Please update your bookmarks.
Thank you, and we apologize for the inconvenience.
Please send an email to SR-SRH.Webmaster@noaa.gov with any concerns.


Current Version
Previous Version:    01  02  03  04  05  06  07  08  09  10  11  12  13  14  15  16  17  18  19  20  21  22  23  24  25  26  27  28  29  30  
   31  32  33  34  35  36  37  38  39  40  41  42  43  44  45  46  47  48  49  50  51  
[Printable]
652
FTUS43 KMPX 240500
TAFMSP
TAF
KMSP 240520Z 2406/2512 11012KT P6SM OVC040
     FM240900 11012G21KT 5SM -RA BR BKN025
      TEMPO 2410/2414 3SM -RA BR BKN008
     FM241400 15007KT 5SM -RA BR BKN012
     FM242000 26009KT P6SM SCT010 BKN020
     FM250000 30007KT P6SM SCT020 BKN050
     FM250300 27005KT P6SM SCT070=


U.S. Dept. of Commerce
NOAA National Weather Service
1325 East West Highway
Silver Spring, MD 20910
E-mail: w-nws.webmaster@noaa.gov
Page last modified: May 16, 2007
NATIONAL WEATHER SERVICE: for Safety, for Work, for Fun - FOR LIFE